Time;durP1;ratioP1;P1;durP2;ratioP2;P2;SDS_P1;SDS_P2;PMS_P1;PMS_P2;Temp;Humidity;BMP_temperature;BMP_pressure;BME280_temperature;BME280_humidity;BME280_pressure;Samples;Min_cycle;Max_cycle;Signal;HPM_P1;HPM_P2
2022/11/30 00:01:34;;;;;;;21.83;12.63;;;;;;;11.63;76.07;100902.16;4976513;28;20078;-63
2022/11/30 00:04:02;;;;;;;19.38;11.40;;;;;;;11.58;76.18;100898.88;4974951;28;20054;-63
2022/11/30 00:06:32;;;;;;;19.73;11.65;;;;;;;11.46;76.66;100892.38;4975008;28;20106;-63
2022/11/30 00:09:00;;;;;;;20.23;12.07;;;;;;;11.52;76.30;100897.41;4975969;28;20488;-63
2022/11/30 00:11:28;;;;;;;19.15;12.02;;;;;;;11.43;76.47;100888.06;4975857;28;20046;-63
2022/11/30 00:13:57;;;;;;;19.08;11.38;;;;;;;11.30;77.20;100888.81;4976356;28;20388;-63
2022/11/30 00:16:26;;;;;;;21.80;12.07;;;;;;;11.32;76.97;100893.13;4991082;28;20538;-64
2022/11/30 00:18:54;;;;;;;22.00;13.43;;;;;;;11.30;76.99;100889.69;4995086;28;20542;-63
2022/11/30 00:21:22;;;;;;;19.30;12.07;;;;;;;11.31;76.96;100888.75;4995185;28;20072;-64
2022/11/30 00:23:52;;;;;;;22.52;12.82;;;;;;;11.24;77.26;100891.81;4994016;28;20046;-63
2022/11/30 00:26:21;;;;;;;20.27;11.88;;;;;;;11.22;77.37;100891.91;4995486;28;20046;-63
2022/11/30 00:28:50;;;;;;;19.42;11.68;;;;;;;11.24;77.30;100887.34;4995287;28;20067;-63
2022/11/30 00:31:18;;;;;;;20.15;11.38;;;;;;;11.36;76.68;100885.81;4995048;28;20050;-63
2022/11/30 00:33:47;;;;;;;20.02;11.88;;;;;;;11.33;76.61;100877.97;4994760;28;20133;-64
2022/11/30 00:36:16;;;;;;;18.90;11.55;;;;;;;11.27;76.74;100871.13;4995096;28;20069;-63
2022/11/30 00:38:45;;;;;;;19.23;11.40;;;;;;;11.20;76.97;100879.59;4993894;28;20228;-64
2022/11/30 00:41:15;;;;;;;19.27;11.75;;;;;;;11.22;77.22;100877.69;4996008;28;20042;-63
2022/11/30 00:43:44;;;;;;;20.02;12.30;;;;;;;11.29;76.81;100879.06;4997280;28;20080;-63
2022/11/30 00:46:12;;;;;;;19.20;11.85;;;;;;;11.27;76.72;100887.16;4997219;28;20047;-63
2022/11/30 00:48:41;;;;;;;19.95;11.55;;;;;;;11.26;76.82;100893.44;4995757;28;20053;-64
2022/11/30 00:51:11;;;;;;;20.65;12.63;;;;;;;11.21;76.81;100898.19;4996471;28;20054;-64
2022/11/30 00:53:40;;;;;;;20.35;12.30;;;;;;;11.18;77.17;100895.66;4996631;28;20057;-63
2022/11/30 00:56:10;;;;;;;18.25;11.15;;;;;;;11.09;77.41;100891.66;4995409;28;20053;-66
2022/11/30 00:58:40;;;;;;;18.80;11.30;;;;;;;11.08;77.38;100883.72;4999267;28;20081;-64
2022/11/30 01:01:09;;;;;;;18.75;11.32;;;;;;;11.16;77.04;100878.84;4999882;28;20042;-64
2022/11/30 01:03:37;;;;;;;19.63;11.90;;;;;;;11.17;76.93;100885.91;4997397;28;20053;-64
2022/11/30 01:06:07;;;;;;;19.67;11.45;;;;;;;11.21;76.58;100882.16;4994914;28;20074;-64
2022/11/30 01:08:35;;;;;;;18.40;11.07;;;;;;;11.17;76.82;100880.59;4993478;28;20081;-63
2022/11/30 01:11:06;;;;;;;19.40;11.32;;;;;;;11.14;76.60;100883.41;4994361;28;20049;-64
2022/11/30 01:13:34;;;;;;;16.92;11.18;;;;;;;11.11;76.79;100880.91;4994535;28;20053;-63
2022/11/30 01:16:09;;;;;;;20.45;11.30;;;;;;;11.12;76.64;100882.66;4994548;28;20096;-64
2022/11/30 01:18:38;;;;;;;18.48;11.13;;;;;;;11.16;76.46;100889.53;4994543;28;20042;-63
2022/11/30 01:21:07;;;;;;;20.08;11.13;;;;;;;11.16;76.45;100884.19;4993120;28;20050;-63
2022/11/30 01:23:36;;;;;;;18.92;11.52;;;;;;;11.23;76.23;100887.41;4994181;28;20125;-63
2022/11/30 01:26:04;;;;;;;17.20;10.90;;;;;;;11.21;76.01;100886.66;4994539;28;20043;-63
2022/11/30 01:28:32;;;;;;;18.30;11.95;;;;;;;11.21;75.98;100887.50;4994371;28;20142;-63
2022/11/30 01:31:02;;;;;;;17.83;10.93;;;;;;;11.03;76.66;100889.31;4994218;28;20081;-63
2022/11/30 01:33:32;;;;;;;17.67;11.32;;;;;;;10.97;76.79;100894.97;4994213;28;20074;-63
2022/11/30 01:36:02;;;;;;;19.60;11.68;;;;;;;10.95;77.01;100893.34;4993045;28;20101;-63
2022/11/30 01:38:36;;;;;;;17.13;11.15;;;;;;;10.95;77.01;100891.53;4994381;28;20133;-63
2022/11/30 01:41:05;;;;;;;18.20;11.45;;;;;;;10.95;76.80;100885.31;4994354;28;20039;-64
2022/11/30 01:43:41;;;;;;;18.92;11.43;;;;;;;10.99;76.70;100892.22;4994125;28;20100;-64
2022/11/30 01:46:33;;;;;;;20.00;10.73;;;;;;;11.00;76.68;100885.94;4994410;28;20042;-64
2022/11/30 01:49:14;;;;;;;20.63;11.27;;;;;;;10.99;76.59;100878.88;4992240;28;20407;-64
2022/11/30 01:51:58;;;;;;;19.15;11.25;;;;;;;11.09;76.11;100872.09;4994609;28;20097;-65
2022/11/30 01:54:32;;;;;;;18.27;11.85;;;;;;;11.03;76.01;100872.44;4993818;28;20411;-63
2022/11/30 01:57:07;;;;;;;17.38;10.73;;;;;;;10.86;76.80;100871.50;4994953;28;20081;-63
2022/11/30 01:59:36;;;;;;;20.27;11.55;;;;;;;10.91;76.88;100873.09;4993938;28;20050;-63
2022/11/30 02:02:04;;;;;;;17.38;10.68;;;;;;;10.86;76.89;100871.50;4994230;28;20072;-63
2022/11/30 02:04:37;;;;;;;15.60;10.43;;;;;;;10.87;76.79;100878.56;4992695;28;20054;-64
2022/11/30 02:07:07;;;;;;;16.08;10.45;;;;;;;10.88;76.83;100874.94;4994129;28;20084;-63
2022/11/30 02:09:41;;;;;;;17.52;11.00;;;;;;;10.92;76.63;100875.69;4994649;28;20396;-63
2022/11/30 02:12:22;;;;;;;16.48;10.68;;;;;;;10.97;76.32;100872.75;4994169;28;20161;-63
2022/11/30 02:14:57;;;;;;;16.25;10.60;;;;;;;10.94;76.45;100872.94;4993947;28;20476;-63
2022/11/30 02:17:33;;;;;;;17.88;10.30;;;;;;;10.94;76.38;100879.13;4995128;28;20073;-63
2022/11/30 02:20:33;;;;;;;17.23;10.75;;;;;;;10.87;76.34;100867.88;4997551;28;20042;-63
2022/11/30 02:23:22;;;;;;;18.27;10.65;;;;;;;10.83;76.77;100869.00;4994139;28;20128;-62
2022/11/30 02:25:56;;;;;;;16.90;9.95;;;;;;;10.81;76.74;100868.22;4997702;28;20050;-62
2022/11/30 02:28:59;;;;;;;20.58;11.25;;;;;;;10.82;76.80;100871.75;4997565;28;20053;-62
2022/11/30 02:31:34;;;;;;;15.73;9.93;;;;;;;10.82;76.60;100869.09;4997526;28;20053;-62
2022/11/30 02:34:07;;;;;;;17.80;10.43;;;;;;;10.80;76.90;100871.81;4996967;28;20491;-63
2022/11/30 02:36:36;;;;;;;15.30;9.65;;;;;;;10.85;76.73;100864.44;4997047;28;20047;-62
2022/11/30 02:39:05;;;;;;;17.55;10.77;;;;;;;10.92;76.14;100869.47;4996892;28;20109;-63
2022/11/30 02:41:38;;;;;;;17.75;10.63;;;;;;;10.91;76.22;100854.41;4997169;28;20049;-62
2022/11/30 02:44:11;;;;;;;15.67;10.70;;;;;;;10.87;76.10;100851.88;4997416;28;20051;-62
2022/11/30 02:46:54;;;;;;;17.25;10.52;;;;;;;10.89;76.23;100852.66;4997343;28;20276;-63
2022/11/30 02:49:31;;;;;;;15.68;9.98;;;;;;;10.84;76.30;100846.72;4997410;28;20060;-62
2022/11/30 02:52:00;;;;;;;16.98;10.50;;;;;;;10.81;76.39;100846.88;4997520;28;20042;-62
2022/11/30 02:54:29;;;;;;;15.68;9.75;;;;;;;10.91;75.89;100841.06;4996910;28;20432;-63
2022/11/30 02:56:57;;;;;;;16.95;10.10;;;;;;;10.92;75.85;100837.44;4996899;28;20083;-63
2022/11/30 02:59:27;;;;;;;16.27;10.60;;;;;;;10.86;76.12;100843.94;4996931;28;20042;-63
2022/11/30 03:01:56;;;;;;;15.88;9.80;;;;;;;10.87;76.09;100846.53;4997241;28;20061;-64
2022/11/30 03:04:24;;;;;;;15.25;9.38;;;;;;;10.85;76.15;100851.09;4996818;28;20039;-63
2022/11/30 03:06:52;;;;;;;18.30;10.20;;;;;;;10.86;76.09;100860.81;4996755;28;20125;-63
2022/11/30 03:09:20;;;;;;;15.65;9.30;;;;;;;10.92;75.81;100864.13;4996736;28;20101;-63
2022/11/30 03:11:48;;;;;;;14.68;9.73;;;;;;;10.79;76.23;100861.22;4996298;28;20506;-63
2022/11/30 03:14:16;;;;;;;16.92;10.55;;;;;;;10.72;76.50;100862.50;4995752;28;20141;-63
2022/11/30 03:16:46;;;;;;;16.67;10.30;;;;;;;10.73;76.23;100859.75;4996353;28;20458;-63
2022/11/30 03:19:15;;;;;;;17.33;10.35;;;;;;;10.71;76.51;100847.41;4997411;28;20130;-63
2022/11/30 03:21:43;;;;;;;14.10;9.57;;;;;;;10.74;76.55;100848.13;4996566;28;20064;-63
2022/11/30 03:24:11;;;;;;;16.10;10.05;;;;;;;10.72;76.41;100852.69;4996056;28;20513;-63
2022/11/30 03:26:39;;;;;;;15.57;9.57;;;;;;;10.71;76.33;100853.63;4996337;28;20046;-63
2022/11/30 03:29:08;;;;;;;15.05;8.98;;;;;;;10.72;76.41;100852.69;4994982;28;20470;-63
2022/11/30 03:31:36;;;;;;;16.30;9.00;;;;;;;10.74;76.39;100856.13;4996238;28;20129;-63
2022/11/30 03:34:05;;;;;;;15.95;9.82;;;;;;;10.85;76.03;100858.25;4995947;28;20502;-63
2022/11/30 03:36:33;;;;;;;14.25;9.32;;;;;;;10.81;75.61;100865.56;4996195;28;20487;-63
2022/11/30 03:39:01;;;;;;;15.55;9.23;;;;;;;10.78;75.97;100862.16;4996126;28;20046;-63
2022/11/30 03:41:30;;;;;;;14.40;8.88;;;;;;;10.76;76.08;100872.91;4994857;28;20061;-63
2022/11/30 03:43:58;;;;;;;15.25;9.43;;;;;;;10.74;76.21;100871.28;4996109;28;20058;-63
2022/11/30 03:46:26;;;;;;;14.73;9.30;;;;;;;10.74;76.01;100872.13;4996275;28;20046;-63
2022/11/30 03:48:55;;;;;;;14.00;9.00;;;;;;;10.69;76.20;100868.81;4995925;28;20073;-62
2022/11/30 03:51:25;;;;;;;14.10;9.07;;;;;;;10.60;76.35;100870.16;4995915;28;20112;-62
2022/11/30 03:53:53;;;;;;;15.00;9.45;;;;;;;10.57;76.76;100872.13;4995803;28;20050;-62
2022/11/30 03:56:21;;;;;;;15.27;9.20;;;;;;;10.53;76.87;100867.91;4995767;28;20053;-63
2022/11/30 03:58:49;;;;;;;14.32;8.95;;;;;;;10.50;76.89;100863.56;4996328;28;20047;-62
2022/11/30 04:01:21;;;;;;;14.43;9.27;;;;;;;10.51;77.09;100864.41;4995440;28;20495;-62
2022/11/30 04:03:50;;;;;;;15.48;9.30;;;;;;;10.52;76.75;100866.19;4996045;28;20050;-62
2022/11/30 04:06:19;;;;;;;13.55;8.40;;;;;;;10.51;76.72;100859.09;4995626;28;20125;-63
2022/11/30 04:08:48;;;;;;;15.45;8.93;;;;;;;10.54;76.72;100861.63;4996083;28;20108;-62
2022/11/30 04:11:17;;;;;;;14.93;9.07;;;;;;;10.47;76.99;100862.84;4995187;28;20051;-63
2022/11/30 04:13:45;;;;;;;14.90;9.13;;;;;;;10.50;76.81;100862.69;4994201;28;20077;-62
2022/11/30 04:16:13;;;;;;;14.20;8.93;;;;;;;10.48;76.94;100864.59;4995038;28;20505;-62
2022/11/30 04:18:42;;;;;;;15.57;9.20;;;;;;;10.49;76.96;100858.31;4994051;28;20504;-63
2022/11/30 04:21:11;;;;;;;13.95;8.77;;;;;;;10.53;76.60;100862.56;4994943;28;20046;-63
2022/11/30 04:23:40;;;;;;;13.07;8.60;;;;;;;10.54;76.66;100865.16;4995235;28;20052;-63
2022/11/30 04:26:13;;;;;;;13.10;8.05;;;;;;;10.59;76.56;100863.09;4993949;28;20050;-63
2022/11/30 04:28:42;;;;;;;;;;;;;;;10.57;76.34;100864.97;4994451;28;20149;-62
2022/11/30 04:31:10;;;;;;;12.48;7.78;;;;;;;10.57;76.30;100859.66;4994759;28;19921;-63
2022/11/30 04:33:39;;;;;;;13.85;8.35;;;;;;;10.56;76.36;100867.72;4994976;28;20057;-63
2022/11/30 04:36:16;;;;;;;13.10;8.38;;;;;;;10.55;76.55;100866.00;4995030;28;20053;-62
2022/11/30 04:38:44;;;;;;;14.45;8.35;;;;;;;10.53;76.50;100870.56;4995665;28;20084;-63
2022/11/30 04:41:13;;;;;;;12.73;8.10;;;;;;;10.52;76.62;100871.50;4994391;28;20042;-63
2022/11/30 04:43:41;;;;;;;13.15;8.55;;;;;;;10.51;76.75;100862.63;4994929;28;20053;-62
2022/11/30 04:46:10;;;;;;;15.20;9.45;;;;;;;10.55;76.26;100860.69;4994883;28;20522;-63
2022/11/30 04:48:38;;;;;;;13.55;8.18;;;;;;;10.63;75.80;100871.81;4994856;28;20057;-63
2022/11/30 04:51:08;;;;;;;13.35;8.05;;;;;;;10.56;76.16;100868.59;4994846;28;20427;-63
2022/11/30 04:53:37;;;;;;;12.35;7.85;;;;;;;10.57;76.11;100869.47;4994952;28;20049;-63
2022/11/30 04:56:06;;;;;;;14.35;8.20;;;;;;;10.51;76.27;100867.94;4993809;28;20103;-63
2022/11/30 04:58:37;;;;;;;13.15;8.27;;;;;;;10.51;76.36;100864.41;4994261;28;20105;-62
2022/11/30 05:01:05;;;;;;;11.68;7.45;;;;;;;10.46;76.72;100861.13;4994544;28;20042;-62
2022/11/30 05:03:34;;;;;;;12.77;8.27;;;;;;;10.43;76.74;100861.28;4994581;28;20101;-62
2022/11/30 05:06:02;;;;;;;12.10;7.95;;;;;;;10.40;76.88;100859.63;4994900;28;20050;-62
2022/11/30 05:08:30;;;;;;;14.35;8.05;;;;;;;10.44;76.70;100863.88;4993345;28;20443;-63
2022/11/30 05:10:59;;;;;;;14.00;8.40;;;;;;;10.41;76.72;100865.81;4994279;28;20044;-63
2022/11/30 05:13:27;;;;;;;12.27;7.95;;;;;;;10.47;76.47;100862.84;4993087;28;20046;-63
2022/11/30 05:15:56;;;;;;;13.25;8.20;;;;;;;10.58;76.06;100865.84;4994452;28;20435;-64
2022/11/30 05:18:25;;;;;;;11.65;7.75;;;;;;;10.62;75.99;100861.25;4994529;28;20046;-63
2022/11/30 05:20:53;;;;;;;12.55;8.18;;;;;;;10.65;75.66;100869.94;4994048;28;20046;-64
2022/11/30 05:23:22;;;;;;;12.68;7.82;;;;;;;10.55;76.12;100876.69;4994352;28;20062;-64
2022/11/30 05:25:50;;;;;;;14.25;8.13;;;;;;;10.58;75.86;100881.84;4994325;28;20054;-64
2022/11/30 05:28:18;;;;;;;14.35;8.38;;;;;;;10.65;75.64;100874.41;4994305;28;20053;-64
2022/11/30 05:30:46;;;;;;;12.20;7.95;;;;;;;10.62;75.82;100879.91;4994201;28;20197;-63
2022/11/30 05:33:16;;;;;;;13.90;8.13;;;;;;;10.60;75.58;100880.81;4992974;28;20415;-64
2022/11/30 05:35:44;;;;;;;12.15;7.72;;;;;;;10.67;75.52;100883.19;4994363;28;20142;-64
2022/11/30 05:38:12;;;;;;;11.88;7.50;;;;;;;10.62;75.52;100883.44;4993125;28;20050;-64
2022/11/30 05:40:40;;;;;;;13.52;7.75;;;;;;;10.63;75.75;100879.84;4994135;28;20069;-64
2022/11/30 05:43:12;;;;;;;12.88;7.82;;;;;;;10.69;75.27;100890.19;4994101;28;20496;-63
2022/11/30 05:45:40;;;;;;;13.82;7.90;;;;;;;10.71;75.16;100884.75;4994291;28;20408;-64
2022/11/30 05:48:08;;;;;;;12.05;7.22;;;;;;;10.70;75.19;100891.91;4994533;28;20133;-62
2022/11/30 05:50:38;;;;;;;10.02;6.85;;;;;;;10.81;74.77;100886.91;4992756;28;20042;-63
2022/11/30 05:53:06;;;;;;;12.82;7.93;;;;;;;10.67;75.15;100891.19;4994802;28;20054;-63
2022/11/30 05:55:35;;;;;;;11.57;7.25;;;;;;;10.56;75.34;100889.94;4998032;28;20042;-63
2022/11/30 05:58:03;;;;;;;10.35;7.22;;;;;;;10.53;75.62;100891.91;4997855;28;20050;-63
2022/11/30 06:00:31;;;;;;;13.20;7.50;;;;;;;10.62;75.46;100886.13;4997947;28;20054;-62
2022/11/30 06:02:59;;;;;;;12.18;7.15;;;;;;;10.56;75.49;100883.75;4997536;28;20050;-63
2022/11/30 06:05:28;;;;;;;12.07;7.38;;;;;;;10.52;75.76;100882.19;4996600;28;20107;-62
2022/11/30 06:07:59;;;;;;;11.13;7.00;;;;;;;10.48;75.90;100878.78;4997642;28;20125;-63
2022/11/30 06:10:27;;;;;;;11.68;6.95;;;;;;;10.48;76.06;100881.44;4997595;28;20396;-63
2022/11/30 06:12:56;;;;;;;10.60;6.85;;;;;;;10.46;75.86;100888.66;4997618;28;20046;-62
2022/11/30 06:15:24;;;;;;;11.65;7.30;;;;;;;10.43;76.08;100888.84;4997365;28;20050;-62
2022/11/30 06:17:55;;;;;;;11.55;7.47;;;;;;;10.48;76.17;100892.13;4997587;28;20051;-62
2022/11/30 06:20:23;;;;;;;13.20;7.88;;;;;;;10.46;76.09;100901.13;4997334;28;20100;-63
2022/11/30 06:22:51;;;;;;;11.02;7.15;;;;;;;10.49;75.93;100898.31;4996364;28;20057;-62
2022/11/30 06:25:21;;;;;;;12.98;7.68;;;;;;;10.52;75.72;100903.53;4997142;28;20117;-64
2022/11/30 06:27:49;;;;;;;10.32;6.72;;;;;;;10.54;75.68;100904.28;4997667;28;20048;-64
2022/11/30 06:30:17;;;;;;;12.10;7.00;;;;;;;10.58;75.54;100909.38;4995707;28;20050;-63
2022/11/30 06:32:46;;;;;;;10.60;6.75;;;;;;;10.48;75.72;100909.94;4996237;28;20057;-63
2022/11/30 06:35:14;;;;;;;12.05;7.03;;;;;;;10.44;76.15;100908.38;4995926;28;20077;-62
2022/11/30 06:37:42;;;;;;;11.32;6.78;;;;;;;10.43;76.28;100920.84;4996657;28;20046;-62
2022/11/30 06:40:13;;;;;;;11.60;7.22;;;;;;;10.40;76.17;100918.28;4995388;28;20045;-62
2022/11/30 06:42:43;;;;;;;10.13;6.30;;;;;;;10.40;76.13;100920.09;4997081;28;20480;-62
2022/11/30 06:45:11;;;;;;;11.70;6.90;;;;;;;10.40;76.16;100922.75;4996325;28;20054;-63
2022/11/30 06:47:40;;;;;;;12.73;6.65;;;;;;;10.40;76.26;100922.75;4996338;28;20155;-63
2022/11/30 06:50:08;;;;;;;11.50;7.05;;;;;;;10.36;76.11;100924.72;4996274;28;20046;-63
2022/11/30 06:52:37;;;;;;;11.88;7.32;;;;;;;10.37;76.25;100923.78;4994687;28;20050;-62
2022/11/30 06:55:06;;;;;;;10.55;6.70;;;;;;;10.40;76.11;100925.44;4995838;28;20492;-62
2022/11/30 06:57:34;;;;;;;13.07;7.03;;;;;;;10.42;76.12;100928.88;4996216;28;20483;-63
2022/11/30 07:00:05;;;;;;;9.32;6.10;;;;;;;10.45;76.08;100918.09;4993513;28;20484;-62
2022/11/30 07:02:34;;;;;;;10.45;6.28;;;;;;;10.47;75.86;100914.41;4994894;28;20457;-62
2022/11/30 07:05:02;;;;;;;11.23;6.63;;;;;;;10.46;75.76;100911.81;4993401;28;20050;-62
2022/11/30 07:07:30;;;;;;;12.13;7.15;;;;;;;10.50;75.63;100911.56;4995822;28;20046;-63
2022/11/30 07:09:58;;;;;;;9.80;6.50;;;;;;;10.48;75.77;100921.47;4996318;28;20047;-63
2022/11/30 07:12:27;;;;;;;10.20;6.20;;;;;;;10.48;75.82;100918.78;4996111;28;20038;-63
2022/11/30 07:14:55;;;;;;;9.55;6.43;;;;;;;10.51;75.56;100915.09;4995683;28;20130;-63
2022/11/30 07:17:24;;;;;;;11.77;6.80;;;;;;;10.50;75.98;100921.38;4993356;28;20411;-63
2022/11/30 07:19:52;;;;;;;9.93;6.07;;;;;;;10.48;75.55;100921.47;4991783;28;20050;-63
2022/11/30 07:22:20;;;;;;;11.85;6.85;;;;;;;10.50;75.50;100916.91;4996138;28;20054;-62
2022/11/30 07:27:34;;;;;;;11.90;6.97;;;;;;;10.47;75.76;100916.19;4994656;28;20042;-62
2022/11/30 07:30:02;;;;;;;9.35;6.03;;;;;;;10.47;75.50;100916.19;4992809;28;20073;-62
2022/11/30 07:32:32;;;;;;;9.88;6.40;;;;;;;10.48;75.55;100918.78;4996007;28;20443;-62
2022/11/30 07:35:00;;;;;;;10.90;6.68;;;;;;;10.49;75.57;100914.31;4994814;28;20061;-62
2022/11/30 07:37:28;;;;;;;10.10;6.75;;;;;;;10.50;75.39;100916.91;4994715;28;20137;-63
2022/11/30 07:39:56;;;;;;;11.68;6.45;;;;;;;10.49;75.30;100908.97;4996054;28;20417;-63
2022/11/30 07:42:24;;;;;;;9.63;6.13;;;;;;;10.49;75.28;100914.31;4995896;28;20134;-63
2022/11/30 07:44:52;;;;;;;10.43;6.20;;;;;;;10.47;75.65;100910.88;4994775;28;20046;-63
2022/11/30 07:47:26;;;;;;;10.18;6.40;;;;;;;10.45;75.43;100902.09;4995087;28;20105;-63
2022/11/30 07:49:56;;;;;;;10.93;7.00;;;;;;;10.42;75.72;100913.78;4995602;28;20400;-63
2022/11/30 07:52:24;;;;;;;11.23;6.10;;;;;;;10.42;75.84;100911.09;4995385;28;20046;-63
2022/11/30 07:54:52;;;;;;;11.30;6.78;;;;;;;10.44;75.89;100911.03;4995623;28;20479;-63
2022/11/30 07:57:20;;;;;;;10.23;6.45;;;;;;;10.51;75.46;100915.09;4994339;28;20058;-63
2022/11/30 07:59:48;;;;;;;10.63;6.47;;;;;;;10.50;75.49;100916.03;4994669;28;20388;-62
2022/11/30 08:02:17;;;;;;;10.68;6.28;;;;;;;10.51;75.38;100915.09;4996012;28;20149;-63
2022/11/30 08:04:45;;;;;;;10.70;5.90;;;;;;;10.47;75.64;100921.53;4995569;28;20061;-63
2022/11/30 08:07:15;;;;;;;11.30;6.32;;;;;;;10.43;75.91;100914.63;4995440;28;20045;-62
2022/11/30 08:09:44;;;;;;;10.20;6.32;;;;;;;10.47;75.71;100913.53;4995133;28;20047;-62
2022/11/30 08:12:12;;;;;;;10.50;6.13;;;;;;;10.41;76.06;100922.69;4995370;28;20053;-63
2022/11/30 08:14:40;;;;;;;9.80;6.15;;;;;;;10.41;76.06;100924.50;4994386;28;20080;-63
2022/11/30 08:17:30;;;;;;;11.93;6.75;;;;;;;10.40;76.13;100920.09;4993874;28;20050;-63
2022/11/30 08:19:58;;;;;;;9.35;5.70;;;;;;;10.44;75.84;100916.38;4995230;28;20423;-63
2022/11/30 08:22:28;;;;;;;10.75;6.32;;;;;;;10.44;76.00;100916.38;4995277;28;20046;-62
2022/11/30 08:24:56;;;;;;;9.80;6.10;;;;;;;10.45;75.95;100912.75;4995295;28;20050;-65
2022/11/30 08:27:24;;;;;;;9.93;5.95;;;;;;;10.44;75.99;100911.91;4995130;28;20042;-63
2022/11/30 08:29:52;;;;;;;9.07;5.90;;;;;;;10.42;76.01;100910.22;4993715;28;20407;-62
2022/11/30 08:32:20;;;;;;;9.68;5.95;;;;;;;10.42;75.98;100907.53;4994615;28;20086;-62
2022/11/30 08:34:48;;;;;;;9.23;5.70;;;;;;;10.42;76.14;100910.22;4993868;28;20411;-62
2022/11/30 08:37:17;;;;;;;9.82;6.28;;;;;;;10.43;76.07;100903.97;4995185;28;20042;-62
2022/11/30 08:39:46;;;;;;;11.10;6.22;;;;;;;10.44;75.95;100901.22;4994501;28;20518;-62
2022/11/30 08:42:14;;;;;;;9.38;5.70;;;;;;;10.51;75.71;100909.75;4993525;28;20053;-63
2022/11/30 08:44:43;;;;;;;9.50;6.30;;;;;;;10.53;75.70;100905.25;4995031;28;20046;-63
2022/11/30 08:47:11;;;;;;;10.20;5.75;;;;;;;10.52;75.49;100907.03;4993816;28;20054;-63
2022/11/30 08:49:39;;;;;;;9.15;5.57;;;;;;;10.55;75.64;100898.88;4994840;28;20046;-62
2022/11/30 08:52:07;;;;;;;9.57;5.75;;;;;;;10.57;75.50;100902.34;4995367;28;20129;-63
2022/11/30 08:54:45;;;;;;;9.02;5.68;;;;;;;10.58;75.69;100895.19;4993949;28;20077;-63
2022/11/30 08:57:16;;;;;;;9.20;5.82;;;;;;;10.54;75.64;100891.81;4994878;28;20054;-63
2022/11/30 08:59:45;;;;;;;10.43;5.47;;;;;;;10.58;75.63;100897.84;4993199;28;20081;-63
2022/11/30 09:02:16;;;;;;;9.07;5.78;;;;;;;10.59;75.26;100896.91;4994143;28;20129;-63
2022/11/30 09:04:47;;;;;;;9.63;6.03;;;;;;;10.61;75.51;100897.69;4994403;28;20038;-63
2022/11/30 09:07:35;;;;;;;8.77;5.13;;;;;;;10.63;75.63;100900.31;4994626;28;20464;-63
2022/11/30 09:10:04;;;;;;;8.52;5.63;;;;;;;10.67;75.43;100901.88;4993183;28;20087;-63
2022/11/30 09:12:36;;;;;;;9.90;6.25;;;;;;;10.64;75.47;100902.91;4993241;28;20050;-63
2022/11/30 09:15:05;;;;;;;9.85;5.57;;;;;;;10.59;75.56;100895.09;4994482;28;20100;-64
2022/11/30 09:17:33;;;;;;;10.75;5.70;;;;;;;10.60;75.39;100898.63;4994313;28;20434;-63
2022/11/30 09:20:01;;;;;;;9.50;5.55;;;;;;;10.58;75.82;100897.84;4994313;28;20052;-64
2022/11/30 09:22:30;;;;;;;10.70;5.60;;;;;;;10.62;75.74;100894.13;4993908;28;20046;-63
2022/11/30 09:24:58;;;;;;;9.65;6.05;;;;;;;10.65;75.86;100895.75;4994783;28;20046;-63
2022/11/30 09:27:29;;;;;;;8.73;5.50;;;;;;;10.60;75.70;100901.31;4993992;28;20380;-63
2022/11/30 09:29:58;;;;;;;9.68;5.40;;;;;;;10.68;75.31;100901.78;4994493;28;20118;-63
2022/11/30 09:32:27;;;;;;;9.40;5.65;;;;;;;10.62;75.77;100910.13;4992590;28;20058;-64
2022/11/30 09:34:55;;;;;;;8.35;5.40;;;;;;;10.68;75.88;100904.47;4994167;28;20105;-64
2022/11/30 09:37:24;;;;;;;10.63;5.80;;;;;;;10.71;75.67;100901.66;4993998;28;20125;-64
2022/11/30 09:39:52;;;;;;;8.38;5.15;;;;;;;10.67;75.83;100897.41;4992812;28;20050;-64
2022/11/30 09:42:33;;;;;;;8.98;5.68;;;;;;;10.66;76.15;100901.00;4994126;28;20050;-63
2022/11/30 09:45:12;;;;;;;9.45;5.53;;;;;;;10.70;75.73;100901.72;4994042;28;20066;-63
2022/11/30 09:48:08;;;;;;;9.15;5.07;;;;;;;10.60;76.37;100901.31;4993114;28;20109;-63
2022/11/30 09:50:40;;;;;;;8.00;5.05;;;;;;;10.55;76.67;100903.34;4994094;28;20050;-63
2022/11/30 09:53:16;;;;;;;8.38;5.40;;;;;;;10.60;76.61;100901.31;4992903;28;20053;-63
2022/11/30 09:55:44;;;;;;;8.68;5.30;;;;;;;10.61;76.29;100895.03;4994178;28;20069;-62
2022/11/30 09:58:23;;;;;;;7.95;5.07;;;;;;;10.56;76.50;100897.06;4993935;28;20460;-63
2022/11/30 10:00:52;;;;;;;10.18;5.50;;;;;;;10.54;76.88;100897.16;4994487;28;20061;-63
2022/11/30 10:03:23;;;;;;;10.13;5.18;;;;;;;10.54;76.87;100896.28;4994164;28;20046;-63
2022/11/30 10:05:57;;;;;;;9.95;5.25;;;;;;;10.53;76.97;100889.25;4994072;28;20054;-63
2022/11/30 10:08:43;;;;;;;8.48;4.72;;;;;;;10.53;76.92;100889.25;4994195;28;20089;-62
2022/11/30 10:11:34;;;;;;;10.25;5.22;;;;;;;10.56;77.07;100889.06;4993719;28;20054;-63
2022/11/30 10:14:22;;;;;;;9.00;5.47;;;;;;;10.56;77.27;100884.59;4994015;28;20480;-63
2022/11/30 10:16:57;;;;;;;8.60;5.15;;;;;;;10.61;77.12;100881.69;4993851;28;20158;-63
2022/11/30 10:19:41;;;;;;;7.93;4.80;;;;;;;10.63;76.98;100882.50;4993872;28;20049;-63
2022/11/30 10:22:18;;;;;;;8.38;4.80;;;;;;;10.71;76.50;100888.31;4992933;28;20051;-63
2022/11/30 10:25:03;;;;;;;8.23;5.00;;;;;;;10.73;76.63;100886.44;4993763;28;20039;-62
2022/11/30 10:27:49;;;;;;;9.63;5.05;;;;;;;10.67;76.68;100877.84;4993824;28;20059;-63
2022/11/30 10:30:21;;;;;;;8.38;5.00;;;;;;;10.73;76.47;100878.41;4993735;28;20403;-63
2022/11/30 10:32:52;;;;;;;7.53;5.18;;;;;;;10.76;76.43;100869.38;4994150;28;20149;-64
2022/11/30 10:35:28;;;;;;;9.38;5.47;;;;;;;10.73;76.56;100864.22;4993636;28;20056;-63
2022/11/30 10:38:00;;;;;;;10.68;5.68;;;;;;;10.76;76.57;100864.91;4992597;28;20060;-63
2022/11/30 10:40:37;;;;;;;8.48;5.07;;;;;;;10.77;76.29;100866.63;4996850;28;20547;-64
2022/11/30 10:43:15;;;;;;;9.10;5.35;;;;;;;10.82;76.36;100863.75;4996876;28;20042;-62
2022/11/30 10:45:46;;;;;;;9.30;5.50;;;;;;;10.83;76.33;100861.00;4997658;28;20046;-63
2022/11/30 10:48:24;;;;;;;8.40;4.53;;;;;;;10.83;76.44;100861.00;4997071;28;20559;-62
2022/11/30 10:50:53;;;;;;;8.55;5.00;;;;;;;10.84;76.34;100862.72;4997473;28;20054;-62
2022/11/30 10:53:22;;;;;;;8.43;5.13;;;;;;;10.84;76.14;100868.06;4996976;28;20061;-63
2022/11/30 10:55:59;;;;;;;7.93;5.00;;;;;;;10.85;76.33;100859.09;4996680;28;20046;-63
2022/11/30 10:58:32;;;;;;;8.77;5.28;;;;;;;10.76;76.82;100859.56;4996837;28;20043;-63
2022/11/30 11:01:06;;;;;;;7.55;4.85;;;;;;;10.71;76.92;100861.63;4996889;28;20073;-62
2022/11/30 11:03:36;;;;;;;7.82;4.57;;;;;;;10.72;77.17;100846.50;4996755;28;20051;-63
2022/11/30 11:06:14;;;;;;;7.68;4.80;;;;;;;10.75;77.02;100852.50;4995729;28;20523;-63
2022/11/30 11:08:45;;;;;;;7.45;4.68;;;;;;;10.73;77.10;100854.41;4996958;28;20050;-63
2022/11/30 11:11:29;;;;;;;6.93;4.50;;;;;;;10.74;77.16;100845.47;4995526;28;20058;-62
2022/11/30 11:14:17;;;;;;;7.30;4.45;;;;;;;10.74;77.17;100855.28;4996893;28;20129;-62
2022/11/30 11:16:56;;;;;;;9.77;5.15;;;;;;;10.73;77.10;100842.88;4997053;28;20050;-62
2022/11/30 11:19:38;;;;;;;8.27;5.00;;;;;;;10.76;76.94;100842.72;4995091;28;20060;-63
2022/11/30 11:22:15;;;;;;;7.65;4.68;;;;;;;10.74;77.13;100845.47;4996737;28;20077;-62
2022/11/30 11:24:43;;;;;;;7.20;4.78;;;;;;;10.76;76.99;100840.03;4996644;28;20046;-62
2022/11/30 11:27:24;;;;;;;7.90;4.80;;;;;;;10.82;76.84;100847.75;4996354;28;20061;-63
2022/11/30 11:30:03;;;;;;;7.35;4.53;;;;;;;10.83;76.99;100838.78;4995185;28;20077;-63
2022/11/30 11:32:31;;;;;;;7.07;4.57;;;;;;;10.79;77.09;100838.06;4995048;28;20420;-63
2022/11/30 11:35:01;;;;;;;8.73;5.25;;;;;;;10.83;77.12;100844.97;4994908;28;20046;-62
2022/11/30 11:37:32;;;;;;;8.93;4.95;;;;;;;10.87;76.72;100856.34;4994933;28;20446;-62